Terminal Aerodrome Forecast
Issued by NWS Sterling, VA

Current Version | Previous Version | Graphics & Text | Print | Product List | Glossary On
Versions: 1 2 3 4 5 6 7 8 9 10 11 12 13 14 15 16 17 18 19 20 21 22 23 24 25 26 27 28
000
FTUS41 KLWX 240500
TAFDCA
TAF
KDCA 240537Z 2406/2506 04009KT 2SM RA BKN006 OVC014
     FM240800 02007KT 2SM -RA OVC005
     FM240900 02007KT 3SM -RAPL OVC008
     FM241200 36011KT 3SM -RAPLSN OVC008
     FM241400 34010KT 2SM -RASN OVC003
     FM242000 29012KT P6SM BKN025
     FM242200 29012KT P6SM SCT130
     FM250400 27008KT P6SM SCT250=

USA.gov is the U.S. government's official web portal to all federal, state and local government web resources and services.